sensor_id;sensor_type;location;lat;lon;timestamp;P1;durP1;ratioP1;P2;durP2;ratioP2
62123;SDS011;48110;47.532;19.078;2023-08-31T00:03:01;3.40;;;3.00;;
62123;SDS011;48110;47.532;19.078;2023-08-31T00:06:05;3.50;;;3.20;;
62123;SDS011;48110;47.532;19.078;2023-08-31T00:09:09;5.82;;;3.20;;
62123;SDS011;48110;47.532;19.078;2023-08-31T00:12:13;3.90;;;3.50;;
62123;SDS011;48110;47.532;19.078;2023-08-31T00:15:15;3.47;;;3.17;;
62123;SDS011;48110;47.532;19.078;2023-08-31T00:18:18;3.87;;;3.50;;
62123;SDS011;48110;47.532;19.078;2023-08-31T00:21:21;4.95;;;3.10;;
62123;SDS011;48110;47.532;19.078;2023-08-31T00:24:24;3.60;;;3.30;;
62123;SDS011;48110;47.532;19.078;2023-08-31T00:27:32;3.60;;;3.12;;
62123;SDS011;48110;47.532;19.078;2023-08-31T00:30:35;3.45;;;2.92;;
62123;SDS011;48110;47.532;19.078;2023-08-31T00:33:38;3.15;;;2.85;;
62123;SDS011;48110;47.532;19.078;2023-08-31T00:36:41;4.85;;;2.97;;
62123;SDS011;48110;47.532;19.078;2023-08-31T00:39:43;3.03;;;2.72;;
62123;SDS011;48110;47.532;19.078;2023-08-31T00:42:46;4.55;;;3.08;;
62123;SDS011;48110;47.532;19.078;2023-08-31T00:45:54;3.37;;;3.08;;
62123;SDS011;48110;47.532;19.078;2023-08-31T00:49:01;3.12;;;2.83;;
62123;SDS011;48110;47.532;19.078;2023-08-31T00:52:06;3.12;;;2.80;;
62123;SDS011;48110;47.532;19.078;2023-08-31T00:55:09;4.10;;;2.87;;
62123;SDS011;48110;47.532;19.078;2023-08-31T00:58:13;3.40;;;2.90;;
62123;SDS011;48110;47.532;19.078;2023-08-31T01:08:14;4.93;;;3.25;;
62123;SDS011;48110;47.532;19.078;2023-08-31T01:14:33;5.82;;;3.30;;
62123;SDS011;48110;47.532;19.078;2023-08-31T01:17:46;3.55;;;3.00;;
62123;SDS011;48110;47.532;19.078;2023-08-31T01:24:21;3.35;;;2.80;;
62123;SDS011;48110;47.532;19.078;2023-08-31T01:27:25;3.17;;;2.87;;
62123;SDS011;48110;47.532;19.078;2023-08-31T01:30:29;3.72;;;3.17;;
62123;SDS011;48110;47.532;19.078;2023-08-31T01:33:33;2.75;;;2.55;;
62123;SDS011;48110;47.532;19.078;2023-08-31T01:36:38;5.65;;;2.92;;
62123;SDS011;48110;47.532;19.078;2023-08-31T01:39:46;6.23;;;2.60;;
62123;SDS011;48110;47.532;19.078;2023-08-31T01:43:01;5.47;;;2.70;;
62123;SDS011;48110;47.532;19.078;2023-08-31T01:46:08;5.62;;;2.60;;
62123;SDS011;48110;47.532;19.078;2023-08-31T01:49:12;4.43;;;2.25;;
62123;SDS011;48110;47.532;19.078;2023-08-31T01:52:16;3.47;;;2.70;;
62123;SDS011;48110;47.532;19.078;2023-08-31T01:55:19;3.75;;;2.10;;
62123;SDS011;48110;47.532;19.078;2023-08-31T01:58:24;4.37;;;2.35;;
62123;SDS011;48110;47.532;19.078;2023-08-31T02:01:27;2.95;;;2.40;;
62123;SDS011;48110;47.532;19.078;2023-08-31T02:04:29;2.45;;;2.17;;
62123;SDS011;48110;47.532;19.078;2023-08-31T02:07:32;4.93;;;2.25;;
62123;SDS011;48110;47.532;19.078;2023-08-31T02:10:36;3.05;;;2.00;;
62123;SDS011;48110;47.532;19.078;2023-08-31T02:13:39;2.45;;;1.90;;
62123;SDS011;48110;47.532;19.078;2023-08-31T02:16:42;2.85;;;2.20;;
62123;SDS011;48110;47.532;19.078;2023-08-31T02:19:45;3.65;;;1.90;;
62123;SDS011;48110;47.532;19.078;2023-08-31T02:22:48;2.25;;;1.90;;
62123;SDS011;48110;47.532;19.078;2023-08-31T02:25:51;6.25;;;2.20;;
62123;SDS011;48110;47.532;19.078;2023-08-31T02:28:54;2.55;;;2.20;;
62123;SDS011;48110;47.532;19.078;2023-08-31T02:31:57;2.62;;;1.85;;
62123;SDS011;48110;47.532;19.078;2023-08-31T02:35:00;2.70;;;2.12;;
62123;SDS011;48110;47.532;19.078;2023-08-31T02:38:03;4.18;;;1.90;;
62123;SDS011;48110;47.532;19.078;2023-08-31T02:41:06;3.33;;;1.92;;
62123;SDS011;48110;47.532;19.078;2023-08-31T02:44:08;3.33;;;1.90;;
62123;SDS011;48110;47.532;19.078;2023-08-31T02:47:11;2.85;;;2.00;;
62123;SDS011;48110;47.532;19.078;2023-08-31T02:50:14;3.72;;;2.00;;
62123;SDS011;48110;47.532;19.078;2023-08-31T02:53:16;3.12;;;2.00;;
62123;SDS011;48110;47.532;19.078;2023-08-31T02:56:19;2.72;;;1.98;;
62123;SDS011;48110;47.532;19.078;2023-08-31T02:59:22;6.68;;;1.80;;
62123;SDS011;48110;47.532;19.078;2023-08-31T03:02:25;2.55;;;1.85;;
62123;SDS011;48110;47.532;19.078;2023-08-31T03:05:28;5.18;;;2.00;;
62123;SDS011;48110;47.532;19.078;2023-08-31T03:08:31;4.62;;;1.83;;
62123;SDS011;48110;47.532;19.078;2023-08-31T03:11:33;3.92;;;1.92;;
62123;SDS011;48110;47.532;19.078;2023-08-31T03:14:36;2.30;;;1.77;;
62123;SDS011;48110;47.532;19.078;2023-08-31T03:17:39;2.03;;;1.60;;
62123;SDS011;48110;47.532;19.078;2023-08-31T03:20:43;2.30;;;2.10;;
62123;SDS011;48110;47.532;19.078;2023-08-31T03:23:46;2.30;;;1.80;;
62123;SDS011;48110;47.532;19.078;2023-08-31T03:26:49;6.93;;;2.30;;
62123;SDS011;48110;47.532;19.078;2023-08-31T03:29:51;3.03;;;1.98;;
62123;SDS011;48110;47.532;19.078;2023-08-31T03:32:55;3.72;;;2.10;;
62123;SDS011;48110;47.532;19.078;2023-08-31T03:36:01;4.60;;;2.30;;
62123;SDS011;48110;47.532;19.078;2023-08-31T03:39:07;3.17;;;2.30;;
62123;SDS011;48110;47.532;19.078;2023-08-31T03:42:10;2.80;;;2.28;;
62123;SDS011;48110;47.532;19.078;2023-08-31T03:45:13;3.92;;;2.30;;
62123;SDS011;48110;47.532;19.078;2023-08-31T03:48:15;4.65;;;2.30;;
62123;SDS011;48110;47.532;19.078;2023-08-31T03:51:18;3.85;;;2.20;;
62123;SDS011;48110;47.532;19.078;2023-08-31T03:54:21;3.25;;;2.37;;
62123;SDS011;48110;47.532;19.078;2023-08-31T03:57:23;3.85;;;2.75;;
62123;SDS011;48110;47.532;19.078;2023-08-31T04:00:26;2.60;;;2.40;;
62123;SDS011;48110;47.532;19.078;2023-08-31T04:03:29;3.45;;;2.50;;
62123;SDS011;48110;47.532;19.078;2023-08-31T04:06:32;3.28;;;2.65;;
62123;SDS011;48110;47.532;19.078;2023-08-31T04:09:35;5.97;;;2.67;;
62123;SDS011;48110;47.532;19.078;2023-08-31T04:12:40;5.05;;;2.58;;
62123;SDS011;48110;47.532;19.078;2023-08-31T04:15:45;5.20;;;2.72;;
62123;SDS011;48110;47.532;19.078;2023-08-31T04:18:49;3.30;;;2.70;;
62123;SDS011;48110;47.532;19.078;2023-08-31T04:21:54;5.43;;;2.67;;
62123;SDS011;48110;47.532;19.078;2023-08-31T04:24:56;4.00;;;2.95;;
62123;SDS011;48110;47.532;19.078;2023-08-31T04:27:59;3.87;;;2.75;;
62123;SDS011;48110;47.532;19.078;2023-08-31T04:31:04;3.40;;;2.78;;
62123;SDS011;48110;47.532;19.078;2023-08-31T04:34:07;4.20;;;3.10;;
62123;SDS011;48110;47.532;19.078;2023-08-31T04:37:09;6.75;;;3.00;;
62123;SDS011;48110;47.532;19.078;2023-08-31T04:40:12;7.05;;;2.90;;
62123;SDS011;48110;47.532;19.078;2023-08-31T04:43:15;3.65;;;2.55;;
62123;SDS011;48110;47.532;19.078;2023-08-31T04:46:18;6.05;;;2.75;;
62123;SDS011;48110;47.532;19.078;2023-08-31T04:49:20;5.65;;;2.70;;
62123;SDS011;48110;47.532;19.078;2023-08-31T04:52:23;4.82;;;2.20;;
62123;SDS011;48110;47.532;19.078;2023-08-31T04:55:26;3.12;;;2.15;;
62123;SDS011;48110;47.532;19.078;2023-08-31T04:58:29;4.37;;;2.40;;
62123;SDS011;48110;47.532;19.078;2023-08-31T05:01:31;4.32;;;2.30;;
62123;SDS011;48110;47.532;19.078;2023-08-31T05:04:34;3.00;;;2.35;;
62123;SDS011;48110;47.532;19.078;2023-08-31T05:07:37;3.92;;;2.15;;
62123;SDS011;48110;47.532;19.078;2023-08-31T05:10:40;3.58;;;2.10;;
62123;SDS011;48110;47.532;19.078;2023-08-31T05:13:42;12.82;;;2.47;;
62123;SDS011;48110;47.532;19.078;2023-08-31T05:16:45;4.20;;;2.12;;
62123;SDS011;48110;47.532;19.078;2023-08-31T05:19:49;3.58;;;2.40;;
62123;SDS011;48110;47.532;19.078;2023-08-31T05:22:53;4.87;;;2.20;;
62123;SDS011;48110;47.532;19.078;2023-08-31T05:25:55;4.93;;;2.30;;
62123;SDS011;48110;47.532;19.078;2023-08-31T05:29:01;3.35;;;2.10;;
62123;SDS011;48110;47.532;19.078;2023-08-31T05:32:06;5.25;;;2.00;;
62123;SDS011;48110;47.532;19.078;2023-08-31T05:35:09;6.47;;;2.47;;
62123;SDS011;48110;47.532;19.078;2023-08-31T05:38:11;6.85;;;2.47;;
62123;SDS011;48110;47.532;19.078;2023-08-31T05:41:15;4.65;;;2.33;;
62123;SDS011;48110;47.532;19.078;2023-08-31T05:44:18;7.00;;;2.62;;
62123;SDS011;48110;47.532;19.078;2023-08-31T05:47:21;4.78;;;2.30;;
62123;SDS011;48110;47.532;19.078;2023-08-31T05:50:24;8.02;;;2.70;;
62123;SDS011;48110;47.532;19.078;2023-08-31T05:53:27;10.63;;;2.87;;
62123;SDS011;48110;47.532;19.078;2023-08-31T05:56:30;5.15;;;2.80;;
62123;SDS011;48110;47.532;19.078;2023-08-31T05:59:33;6.47;;;3.00;;
62123;SDS011;48110;47.532;19.078;2023-08-31T06:02:36;5.65;;;3.10;;
62123;SDS011;48110;47.532;19.078;2023-08-31T06:05:39;8.88;;;3.35;;
62123;SDS011;48110;47.532;19.078;2023-08-31T06:08:41;5.85;;;3.15;;
62123;SDS011;48110;47.532;19.078;2023-08-31T06:11:45;5.72;;;3.40;;
62123;SDS011;48110;47.532;19.078;2023-08-31T06:14:48;7.53;;;3.20;;
62123;SDS011;48110;47.532;19.078;2023-08-31T06:17:51;5.82;;;3.15;;
62123;SDS011;48110;47.532;19.078;2023-08-31T06:20:54;5.12;;;2.83;;
62123;SDS011;48110;47.532;19.078;2023-08-31T06:23:59;6.22;;;2.80;;
62123;SDS011;48110;47.532;19.078;2023-08-31T06:27:02;4.47;;;2.70;;
62123;SDS011;48110;47.532;19.078;2023-08-31T06:30:05;4.93;;;2.80;;
62123;SDS011;48110;47.532;19.078;2023-08-31T06:33:09;3.75;;;2.72;;
62123;SDS011;48110;47.532;19.078;2023-08-31T06:36:13;6.50;;;2.50;;
62123;SDS011;48110;47.532;19.078;2023-08-31T06:39:15;5.35;;;2.62;;
62123;SDS011;48110;47.532;19.078;2023-08-31T06:42:18;3.75;;;2.97;;
62123;SDS011;48110;47.532;19.078;2023-08-31T06:45:21;3.60;;;2.70;;
62123;SDS011;48110;47.532;19.078;2023-08-31T06:48:24;4.97;;;2.55;;
62123;SDS011;48110;47.532;19.078;2023-08-31T06:51:27;5.20;;;2.60;;
62123;SDS011;48110;47.532;19.078;2023-08-31T06:54:30;4.65;;;2.70;;
62123;SDS011;48110;47.532;19.078;2023-08-31T06:57:33;6.03;;;2.60;;
62123;SDS011;48110;47.532;19.078;2023-08-31T07:00:36;5.57;;;2.78;;
62123;SDS011;48110;47.532;19.078;2023-08-31T07:03:38;5.47;;;2.72;;
62123;SDS011;48110;47.532;19.078;2023-08-31T07:06:42;6.87;;;3.03;;
62123;SDS011;48110;47.532;19.078;2023-08-31T07:09:45;5.20;;;2.87;;
62123;SDS011;48110;47.532;19.078;2023-08-31T07:12:49;4.68;;;2.80;;
62123;SDS011;48110;47.532;19.078;2023-08-31T07:15:51;7.75;;;2.87;;
62123;SDS011;48110;47.532;19.078;2023-08-31T07:18:54;4.75;;;2.65;;
62123;SDS011;48110;47.532;19.078;2023-08-31T07:21:57;4.15;;;2.50;;
62123;SDS011;48110;47.532;19.078;2023-08-31T07:25:02;3.58;;;2.37;;
62123;SDS011;48110;47.532;19.078;2023-08-31T07:28:06;4.43;;;2.37;;
62123;SDS011;48110;47.532;19.078;2023-08-31T07:31:09;5.37;;;2.40;;
62123;SDS011;48110;47.532;19.078;2023-08-31T07:34:12;3.87;;;2.22;;
62123;SDS011;48110;47.532;19.078;2023-08-31T07:37:14;3.97;;;2.00;;
62123;SDS011;48110;47.532;19.078;2023-08-31T07:40:17;5.18;;;2.10;;
62123;SDS011;48110;47.532;19.078;2023-08-31T07:43:20;2.78;;;2.00;;
62123;SDS011;48110;47.532;19.078;2023-08-31T07:46:23;4.10;;;2.20;;
62123;SDS011;48110;47.532;19.078;2023-08-31T07:49:26;2.62;;;1.90;;
62123;SDS011;48110;47.532;19.078;2023-08-31T07:52:29;3.25;;;1.90;;
62123;SDS011;48110;47.532;19.078;2023-08-31T07:55:32;6.30;;;2.17;;
62123;SDS011;48110;47.532;19.078;2023-08-31T07:58:34;3.87;;;1.98;;
62123;SDS011;48110;47.532;19.078;2023-08-31T08:01:37;3.53;;;1.98;;
62123;SDS011;48110;47.532;19.078;2023-08-31T08:04:41;4.47;;;2.55;;
62123;SDS011;48110;47.532;19.078;2023-08-31T08:07:43;7.68;;;2.00;;
62123;SDS011;48110;47.532;19.078;2023-08-31T08:10:46;4.25;;;2.50;;
62123;SDS011;48110;47.532;19.078;2023-08-31T08:13:49;6.68;;;2.50;;
62123;SDS011;48110;47.532;19.078;2023-08-31T08:16:52;7.90;;;2.58;;
62123;SDS011;48110;47.532;19.078;2023-08-31T08:19:54;4.15;;;2.42;;
62123;SDS011;48110;47.532;19.078;2023-08-31T08:22:57;5.00;;;2.50;;
62123;SDS011;48110;47.532;19.078;2023-08-31T08:26:00;4.62;;;2.28;;
62123;SDS011;48110;47.532;19.078;2023-08-31T08:29:03;4.22;;;2.50;;
62123;SDS011;48110;47.532;19.078;2023-08-31T08:32:06;4.05;;;2.50;;
62123;SDS011;48110;47.532;19.078;2023-08-31T08:35:11;4.37;;;2.10;;
62123;SDS011;48110;47.532;19.078;2023-08-31T08:38:13;4.28;;;1.98;;
62123;SDS011;48110;47.532;19.078;2023-08-31T08:41:18;7.37;;;2.40;;
62123;SDS011;48110;47.532;19.078;2023-08-31T08:44:31;2.80;;;1.83;;
62123;SDS011;48110;47.532;19.078;2023-08-31T08:47:35;3.72;;;2.12;;
62123;SDS011;48110;47.532;19.078;2023-08-31T08:50:38;3.58;;;1.60;;
62123;SDS011;48110;47.532;19.078;2023-08-31T08:53:43;6.20;;;2.08;;
62123;SDS011;48110;47.532;19.078;2023-08-31T08:56:48;5.20;;;1.85;;
62123;SDS011;48110;47.532;19.078;2023-08-31T08:59:51;3.37;;;1.50;;
62123;SDS011;48110;47.532;19.078;2023-08-31T09:02:54;2.60;;;1.60;;
62123;SDS011;48110;47.532;19.078;2023-08-31T09:06:01;2.70;;;1.65;;
62123;SDS011;48110;47.532;19.078;2023-08-31T09:09:09;2.58;;;1.40;;
62123;SDS011;48110;47.532;19.078;2023-08-31T09:12:12;2.08;;;1.60;;
62123;SDS011;48110;47.532;19.078;2023-08-31T09:15:16;3.92;;;1.80;;
62123;SDS011;48110;47.532;19.078;2023-08-31T09:18:29;5.22;;;1.70;;
62123;SDS011;48110;47.532;19.078;2023-08-31T09:21:37;3.08;;;1.70;;
62123;SDS011;48110;47.532;19.078;2023-08-31T09:24:43;4.05;;;1.50;;
62123;SDS011;48110;47.532;19.078;2023-08-31T09:27:46;2.92;;;1.67;;
62123;SDS011;48110;47.532;19.078;2023-08-31T09:30:51;3.60;;;1.70;;
62123;SDS011;48110;47.532;19.078;2023-08-31T09:33:55;4.20;;;1.60;;
62123;SDS011;48110;47.532;19.078;2023-08-31T09:37:06;5.05;;;1.58;;
62123;SDS011;48110;47.532;19.078;2023-08-31T09:40:14;5.57;;;1.80;;
62123;SDS011;48110;47.532;19.078;2023-08-31T09:43:20;2.33;;;1.60;;
62123;SDS011;48110;47.532;19.078;2023-08-31T09:46:24;1.80;;;1.40;;
62123;SDS011;48110;47.532;19.078;2023-08-31T09:49:28;4.55;;;1.48;;
62123;SDS011;48110;47.532;19.078;2023-08-31T09:52:32;3.83;;;1.40;;
62123;SDS011;48110;47.532;19.078;2023-08-31T09:55:35;3.50;;;1.55;;
62123;SDS011;48110;47.532;19.078;2023-08-31T09:58:40;3.90;;;1.60;;
62123;SDS011;48110;47.532;19.078;2023-08-31T10:01:45;2.87;;;1.20;;
62123;SDS011;48110;47.532;19.078;2023-08-31T10:04:51;3.75;;;1.33;;
62123;SDS011;48110;47.532;19.078;2023-08-31T10:07:54;2.20;;;1.33;;
62123;SDS011;48110;47.532;19.078;2023-08-31T10:10:59;5.93;;;1.40;;
62123;SDS011;48110;47.532;19.078;2023-08-31T10:14:06;9.15;;;1.50;;
62123;SDS011;48110;47.532;19.078;2023-08-31T10:17:10;4.93;;;1.90;;
62123;SDS011;48110;47.532;19.078;2023-08-31T10:20:14;2.00;;;1.48;;
62123;SDS011;48110;47.532;19.078;2023-08-31T10:23:20;3.65;;;1.45;;
62123;SDS011;48110;47.532;19.078;2023-08-31T10:29:33;4.28;;;1.70;;
62123;SDS011;48110;47.532;19.078;2023-08-31T10:32:37;3.00;;;1.30;;
62123;SDS011;48110;47.532;19.078;2023-08-31T10:35:41;3.90;;;1.60;;
62123;SDS011;48110;47.532;19.078;2023-08-31T10:41:58;2.07;;;1.40;;
62123;SDS011;48110;47.532;19.078;2023-08-31T10:45:06;4.62;;;1.50;;
62123;SDS011;48110;47.532;19.078;2023-08-31T10:48:09;4.82;;;1.50;;
62123;SDS011;48110;47.532;19.078;2023-08-31T10:51:15;2.75;;;1.20;;
62123;SDS011;48110;47.532;19.078;2023-08-31T10:54:21;2.37;;;1.20;;
62123;SDS011;48110;47.532;19.078;2023-08-31T10:57:31;2.53;;;1.33;;
62123;SDS011;48110;47.532;19.078;2023-08-31T11:01:08;2.97;;;1.40;;
62123;SDS011;48110;47.532;19.078;2023-08-31T11:04:08;6.20;;;1.20;;
62123;SDS011;48110;47.532;19.078;2023-08-31T11:07:17;4.07;;;1.27;;
62123;SDS011;48110;47.532;19.078;2023-08-31T11:10:21;3.33;;;1.20;;
62123;SDS011;48110;47.532;19.078;2023-08-31T11:13:28;4.10;;;1.33;;
62123;SDS011;48110;47.532;19.078;2023-08-31T11:16:30;4.85;;;1.30;;
62123;SDS011;48110;47.532;19.078;2023-08-31T11:19:34;2.20;;;1.35;;
62123;SDS011;48110;47.532;19.078;2023-08-31T11:22:41;3.12;;;1.25;;
62123;SDS011;48110;47.532;19.078;2023-08-31T11:25:44;5.00;;;1.33;;
62123;SDS011;48110;47.532;19.078;2023-08-31T11:28:49;4.35;;;1.40;;
62123;SDS011;48110;47.532;19.078;2023-08-31T11:31:52;3.17;;;1.40;;
62123;SDS011;48110;47.532;19.078;2023-08-31T11:34:55;5.55;;;1.40;;
62123;SDS011;48110;47.532;19.078;2023-08-31T11:37:58;5.15;;;1.40;;
62123;SDS011;48110;47.532;19.078;2023-08-31T11:41:00;4.22;;;1.30;;
62123;SDS011;48110;47.532;19.078;2023-08-31T11:44:03;2.37;;;1.33;;
62123;SDS011;48110;47.532;19.078;2023-08-31T11:47:07;1.87;;;1.27;;
62123;SDS011;48110;47.532;19.078;2023-08-31T11:50:10;3.97;;;1.65;;
62123;SDS011;48110;47.532;19.078;2023-08-31T11:53:15;5.15;;;1.40;;
62123;SDS011;48110;47.532;19.078;2023-08-31T11:56:21;2.50;;;1.33;;
62123;SDS011;48110;47.532;19.078;2023-08-31T11:59:24;1.98;;;1.37;;
62123;SDS011;48110;47.532;19.078;2023-08-31T12:02:27;3.10;;;1.30;;
62123;SDS011;48110;47.532;19.078;2023-08-31T12:05:44;3.75;;;1.48;;
62123;SDS011;48110;47.532;19.078;2023-08-31T12:08:48;4.05;;;1.40;;
62123;SDS011;48110;47.532;19.078;2023-08-31T12:11:51;3.45;;;1.23;;
62123;SDS011;48110;47.532;19.078;2023-08-31T12:14:54;2.85;;;1.25;;
62123;SDS011;48110;47.532;19.078;2023-08-31T12:17:57;7.12;;;1.35;;
62123;SDS011;48110;47.532;19.078;2023-08-31T12:21:01;2.17;;;1.12;;
62123;SDS011;48110;47.532;19.078;2023-08-31T12:24:07;2.28;;;1.30;;
62123;SDS011;48110;47.532;19.078;2023-08-31T12:27:10;2.03;;;1.10;;
62123;SDS011;48110;47.532;19.078;2023-08-31T12:30:14;2.45;;;1.15;;
62123;SDS011;48110;47.532;19.078;2023-08-31T12:33:17;5.93;;;1.33;;
62123;SDS011;48110;47.532;19.078;2023-08-31T12:36:23;3.37;;;1.37;;
62123;SDS011;48110;47.532;19.078;2023-08-31T12:39:26;1.67;;;1.15;;
62123;SDS011;48110;47.532;19.078;2023-08-31T12:42:29;2.15;;;1.20;;
62123;SDS011;48110;47.532;19.078;2023-08-31T12:45:34;2.70;;;1.10;;
62123;SDS011;48110;47.532;19.078;2023-08-31T12:48:37;3.58;;;1.23;;
62123;SDS011;48110;47.532;19.078;2023-08-31T12:51:40;2.70;;;1.17;;
62123;SDS011;48110;47.532;19.078;2023-08-31T12:54:42;1.65;;;1.25;;
62123;SDS011;48110;47.532;19.078;2023-08-31T12:57:46;3.58;;;1.23;;
62123;SDS011;48110;47.532;19.078;2023-08-31T13:00:49;1.75;;;1.17;;
62123;SDS011;48110;47.532;19.078;2023-08-31T13:03:52;4.03;;;1.50;;
62123;SDS011;48110;47.532;19.078;2023-08-31T13:06:57;3.12;;;1.30;;
62123;SDS011;48110;47.532;19.078;2023-08-31T13:10:01;2.30;;;1.33;;
62123;SDS011;48110;47.532;19.078;2023-08-31T13:13:06;5.30;;;1.65;;
62123;SDS011;48110;47.532;19.078;2023-08-31T13:16:09;1.60;;;1.15;;
62123;SDS011;48110;47.532;19.078;2023-08-31T13:19:12;2.05;;;1.17;;
62123;SDS011;48110;47.532;19.078;2023-08-31T13:22:16;1.80;;;1.23;;
62123;SDS011;48110;47.532;19.078;2023-08-31T13:25:19;2.25;;;1.30;;
62123;SDS011;48110;47.532;19.078;2023-08-31T13:28:21;1.75;;;1.30;;
62123;SDS011;48110;47.532;19.078;2023-08-31T13:31:24;2.03;;;1.37;;
62123;SDS011;48110;47.532;19.078;2023-08-31T13:34:27;3.62;;;1.30;;
62123;SDS011;48110;47.532;19.078;2023-08-31T13:37:30;3.17;;;1.52;;
62123;SDS011;48110;47.532;19.078;2023-08-31T13:40:34;2.45;;;1.30;;
62123;SDS011;48110;47.532;19.078;2023-08-31T13:43:38;4.15;;;1.05;;
62123;SDS011;48110;47.532;19.078;2023-08-31T13:46:42;3.12;;;1.12;;
62123;SDS011;48110;47.532;19.078;2023-08-31T13:49:45;2.97;;;1.40;;
62123;SDS011;48110;47.532;19.078;2023-08-31T13:52:48;4.65;;;1.40;;
62123;SDS011;48110;47.532;19.078;2023-08-31T13:55:51;1.75;;;1.35;;
62123;SDS011;48110;47.532;19.078;2023-08-31T13:58:54;5.45;;;1.85;;
62123;SDS011;48110;47.532;19.078;2023-08-31T14:01:57;5.35;;;1.77;;
62123;SDS011;48110;47.532;19.078;2023-08-31T14:05:00;2.80;;;1.80;;
62123;SDS011;48110;47.532;19.078;2023-08-31T14:08:04;3.33;;;1.50;;
62123;SDS011;48110;47.532;19.078;2023-08-31T14:11:07;3.00;;;1.48;;
62123;SDS011;48110;47.532;19.078;2023-08-31T14:14:10;1.67;;;1.35;;
62123;SDS011;48110;47.532;19.078;2023-08-31T14:17:13;2.65;;;1.77;;
62123;SDS011;48110;47.532;19.078;2023-08-31T14:20:16;3.20;;;1.52;;
62123;SDS011;48110;47.532;19.078;2023-08-31T14:23:19;2.50;;;1.40;;
62123;SDS011;48110;47.532;19.078;2023-08-31T14:26:22;3.35;;;1.50;;
62123;SDS011;48110;47.532;19.078;2023-08-31T14:29:26;3.92;;;1.27;;
62123;SDS011;48110;47.532;19.078;2023-08-31T14:32:29;2.05;;;1.50;;
62123;SDS011;48110;47.532;19.078;2023-08-31T14:35:32;1.75;;;1.30;;
62123;SDS011;48110;47.532;19.078;2023-08-31T14:38:38;1.87;;;1.40;;
62123;SDS011;48110;47.532;19.078;2023-08-31T14:41:41;2.75;;;1.48;;
62123;SDS011;48110;47.532;19.078;2023-08-31T14:44:44;11.82;;;2.22;;
62123;SDS011;48110;47.532;19.078;2023-08-31T14:47:47;3.15;;;1.40;;
62123;SDS011;48110;47.532;19.078;2023-08-31T14:50:50;5.25;;;1.90;;
62123;SDS011;48110;47.532;19.078;2023-08-31T14:53:52;9.45;;;1.55;;
62123;SDS011;48110;47.532;19.078;2023-08-31T14:56:55;2.03;;;1.40;;
62123;SDS011;48110;47.532;19.078;2023-08-31T14:59:58;4.53;;;1.55;;
62123;SDS011;48110;47.532;19.078;2023-08-31T15:03:04;2.30;;;1.50;;
62123;SDS011;48110;47.532;19.078;2023-08-31T15:06:08;9.18;;;1.80;;
62123;SDS011;48110;47.532;19.078;2023-08-31T15:09:11;1.75;;;1.33;;
62123;SDS011;48110;47.532;19.078;2023-08-31T15:12:14;3.05;;;1.62;;
62123;SDS011;48110;47.532;19.078;2023-08-31T15:15:16;2.05;;;1.60;;
62123;SDS011;48110;47.532;19.078;2023-08-31T15:18:20;3.25;;;1.58;;
62123;SDS011;48110;47.532;19.078;2023-08-31T15:21:23;7.60;;;2.00;;
62123;SDS011;48110;47.532;19.078;2023-08-31T15:24:26;5.00;;;1.90;;
62123;SDS011;48110;47.532;19.078;2023-08-31T15:27:29;2.70;;;1.70;;
62123;SDS011;48110;47.532;19.078;2023-08-31T15:30:32;7.30;;;1.98;;
62123;SDS011;48110;47.532;19.078;2023-08-31T15:33:34;5.32;;;1.70;;
62123;SDS011;48110;47.532;19.078;2023-08-31T15:36:37;3.30;;;1.60;;
62123;SDS011;48110;47.532;19.078;2023-08-31T15:39:40;4.62;;;1.92;;
62123;SDS011;48110;47.532;19.078;2023-08-31T15:42:43;3.58;;;1.75;;
62123;SDS011;48110;47.532;19.078;2023-08-31T15:45:45;5.32;;;1.70;;
62123;SDS011;48110;47.532;19.078;2023-08-31T15:48:52;2.40;;;1.70;;
62123;SDS011;48110;47.532;19.078;2023-08-31T15:51:54;4.78;;;1.90;;
62123;SDS011;48110;47.532;19.078;2023-08-31T15:54:58;4.60;;;1.80;;
62123;SDS011;48110;47.532;19.078;2023-08-31T15:58:02;5.32;;;1.50;;
62123;SDS011;48110;47.532;19.078;2023-08-31T16:01:08;6.07;;;1.80;;
62123;SDS011;48110;47.532;19.078;2023-08-31T16:04:12;2.60;;;1.62;;
62123;SDS011;48110;47.532;19.078;2023-08-31T16:07:15;3.62;;;1.65;;
62123;SDS011;48110;47.532;19.078;2023-08-31T16:10:18;2.15;;;1.50;;
62123;SDS011;48110;47.532;19.078;2023-08-31T16:13:21;6.35;;;1.90;;
62123;SDS011;48110;47.532;19.078;2023-08-31T16:16:24;7.40;;;1.60;;
62123;SDS011;48110;47.532;19.078;2023-08-31T16:19:27;2.62;;;1.60;;
62123;SDS011;48110;47.532;19.078;2023-08-31T16:22:30;4.47;;;1.70;;
62123;SDS011;48110;47.532;19.078;2023-08-31T16:25:33;5.25;;;1.50;;
62123;SDS011;48110;47.532;19.078;2023-08-31T16:28:36;3.80;;;1.67;;
62123;SDS011;48110;47.532;19.078;2023-08-31T16:31:39;3.03;;;1.70;;
62123;SDS011;48110;47.532;19.078;2023-08-31T16:34:41;3.20;;;1.80;;
62123;SDS011;48110;47.532;19.078;2023-08-31T16:37:44;3.40;;;1.67;;
62123;SDS011;48110;47.532;19.078;2023-08-31T16:40:47;7.68;;;4.50;;
62123;SDS011;48110;47.532;19.078;2023-08-31T16:43:49;2.37;;;1.55;;
62123;SDS011;48110;47.532;19.078;2023-08-31T16:46:52;4.43;;;1.52;;
62123;SDS011;48110;47.532;19.078;2023-08-31T16:49:58;3.05;;;1.33;;
62123;SDS011;48110;47.532;19.078;2023-08-31T16:53:02;3.65;;;1.65;;
62123;SDS011;48110;47.532;19.078;2023-08-31T16:56:05;2.35;;;1.55;;
62123;SDS011;48110;47.532;19.078;2023-08-31T16:59:08;4.15;;;1.50;;
62123;SDS011;48110;47.532;19.078;2023-08-31T17:02:11;2.75;;;1.60;;
62123;SDS011;48110;47.532;19.078;2023-08-31T17:05:14;2.47;;;1.30;;
62123;SDS011;48110;47.532;19.078;2023-08-31T17:08:17;2.12;;;1.40;;
62123;SDS011;48110;47.532;19.078;2023-08-31T17:11:20;3.83;;;1.70;;
62123;SDS011;48110;47.532;19.078;2023-08-31T17:14:22;3.33;;;1.60;;
62123;SDS011;48110;47.532;19.078;2023-08-31T17:17:25;6.87;;;1.70;;
62123;SDS011;48110;47.532;19.078;2023-08-31T17:20:33;3.22;;;1.60;;
62123;SDS011;48110;47.532;19.078;2023-08-31T17:23:36;3.70;;;1.92;;
62123;SDS011;48110;47.532;19.078;2023-08-31T17:26:39;3.50;;;1.70;;
62123;SDS011;48110;47.532;19.078;2023-08-31T17:29:42;3.22;;;1.40;;
62123;SDS011;48110;47.532;19.078;2023-08-31T17:32:45;4.07;;;1.60;;
62123;SDS011;48110;47.532;19.078;2023-08-31T17:35:48;11.38;;;2.62;;
62123;SDS011;48110;47.532;19.078;2023-08-31T17:38:51;7.00;;;2.05;;
62123;SDS011;48110;47.532;19.078;2023-08-31T17:41:54;7.87;;;2.10;;
62123;SDS011;48110;47.532;19.078;2023-08-31T17:44:57;6.10;;;2.30;;
62123;SDS011;48110;47.532;19.078;2023-08-31T17:48:00;6.37;;;2.00;;
62123;SDS011;48110;47.532;19.078;2023-08-31T17:51:04;9.82;;;2.10;;
62123;SDS011;48110;47.532;19.078;2023-08-31T17:54:07;4.50;;;2.10;;
62123;SDS011;48110;47.532;19.078;2023-08-31T17:57:10;6.82;;;2.00;;
62123;SDS011;48110;47.532;19.078;2023-08-31T18:00:14;7.37;;;4.97;;
62123;SDS011;48110;47.532;19.078;2023-08-31T18:03:18;5.25;;;2.87;;
62123;SDS011;48110;47.532;19.078;2023-08-31T18:06:22;4.80;;;2.50;;
62123;SDS011;48110;47.532;19.078;2023-08-31T18:09:25;6.82;;;2.50;;
62123;SDS011;48110;47.532;19.078;2023-08-31T18:12:33;5.93;;;2.30;;
62123;SDS011;48110;47.532;19.078;2023-08-31T18:15:37;3.00;;;2.00;;
62123;SDS011;48110;47.532;19.078;2023-08-31T18:18:40;3.83;;;1.87;;
62123;SDS011;48110;47.532;19.078;2023-08-31T18:21:45;6.10;;;2.12;;
62123;SDS011;48110;47.532;19.078;2023-08-31T18:24:48;3.42;;;1.95;;
62123;SDS011;48110;47.532;19.078;2023-08-31T18:27:51;6.03;;;2.20;;
62123;SDS011;48110;47.532;19.078;2023-08-31T18:30:55;4.55;;;2.12;;